createdAt,value
2022-08-02T00:02:14.194Z,23.63
2022-08-02T00:06:15.814Z,23.60
2022-08-02T00:10:17.685Z,23.54
2022-08-02T00:14:19.241Z,23.44
2022-08-02T00:18:20.899Z,23.37
2022-08-02T00:22:22.472Z,23.34
2022-08-02T00:26:24.046Z,23.25
2022-08-02T00:30:25.805Z,23.25
2022-08-02T00:34:32.834Z,23.18
2022-08-02T00:38:36.823Z,23.16
2022-08-02T00:42:39.958Z,23.09
2022-08-02T00:46:42.234Z,23.09
2022-08-02T00:50:43.822Z,22.99
2022-08-02T00:54:45.411Z,22.96
2022-08-02T00:58:46.979Z,22.85
2022-08-02T01:02:48.712Z,22.85
2022-08-02T01:06:50.253Z,22.74
2022-08-02T01:10:51.883Z,22.67
2022-08-02T01:14:56.819Z,22.54
2022-08-02T01:19:08.297Z,22.49
2022-08-02T01:23:53.825Z,22.44
2022-08-02T01:28:34.387Z,22.36
2022-08-02T01:32:43.055Z,22.38
2022-08-02T01:36:49.455Z,22.36
2022-08-02T01:40:53.509Z,22.39
2022-08-02T01:44:56.110Z,22.44
2022-08-02T01:49:01.501Z,22.44
2022-08-02T01:53:06.771Z,22.44
2022-08-02T01:57:12.024Z,22.44
2022-08-02T02:01:18.568Z,22.48
2022-08-02T02:05:22.823Z,22.54
2022-08-02T02:09:29.651Z,22.61
2022-08-02T02:13:33.564Z,22.69
2022-08-02T02:17:52.791Z,22.74
2022-08-02T02:21:58.281Z,22.75
2022-08-02T02:26:03.878Z,22.75
2022-08-02T02:30:06.892Z,22.78
2022-08-02T02:34:25.437Z,22.79
2022-08-02T02:38:31.211Z,22.74
2022-08-02T02:42:34.612Z,22.67
2022-08-02T02:46:36.946Z,22.63
2022-08-02T02:50:39.238Z,22.59
2022-08-02T02:54:42.747Z,22.51
2022-08-02T02:58:45.534Z,22.42
2022-08-02T03:02:47.285Z,22.29
2022-08-02T03:06:49.067Z,22.17
2022-08-02T03:10:50.779Z,22.06
2022-08-02T03:14:52.388Z,22.02
2022-08-02T03:18:55.599Z,21.94
2022-08-02T03:22:57.179Z,21.93
2022-08-02T03:26:58.783Z,21.93
2022-08-02T03:31:00.852Z,21.94
2022-08-02T03:35:03.179Z,21.86
2022-08-02T03:39:06.437Z,21.82
2022-08-02T03:43:09.441Z,21.82
2022-08-02T03:47:12.591Z,21.81
2022-08-02T03:51:14.681Z,21.71
2022-08-02T03:55:16.253Z,21.66
2022-08-02T03:59:17.814Z,21.67
2022-08-02T04:03:19.988Z,21.66
2022-08-02T04:08:33.336Z,21.81
2022-08-02T04:11:43.312Z,21.86
2022-08-02T04:15:45.779Z,21.96
2022-08-02T04:19:54.948Z,21.93
2022-08-02T04:23:57.207Z,21.96
2022-08-02T04:28:17.482Z,22.01
2022-08-02T04:32:21.986Z,22.04
2022-08-02T04:36:31.435Z,22.09
2022-08-02T04:40:33.569Z,22.04
2022-08-02T04:44:35.525Z,21.96
2022-08-02T04:48:37.155Z,21.96
2022-08-02T04:52:40.747Z,22.02
2022-08-02T04:56:45.603Z,22.04
2022-08-02T05:00:47.365Z,22.09
2022-08-02T05:04:49.002Z,22.11
2022-08-02T05:08:52.817Z,22.21
2022-08-02T05:12:55.027Z,22.24
2022-08-02T05:16:56.607Z,22.20
2022-08-02T05:20:58.477Z,22.19
2022-08-02T05:25:00.119Z,22.24
2022-08-02T05:29:01.692Z,22.26
2022-08-02T05:33:04.642Z,22.21
2022-08-02T05:37:08.979Z,22.15
2022-08-02T05:41:11.630Z,22.12
2022-08-02T05:45:13.277Z,22.12
2022-08-02T05:49:15.010Z,22.15
2022-08-02T05:53:33.243Z,22.24
2022-08-02T05:58:01.568Z,22.35
2022-08-02T06:02:10.463Z,22.35
2022-08-02T06:06:16.159Z,22.41
2022-08-02T06:10:21.502Z,22.46
2022-08-02T06:14:23.319Z,22.45
2022-08-02T06:18:33.574Z,22.51
2022-08-02T06:22:37.222Z,22.59
2022-08-02T06:26:39.432Z,22.66
2022-08-02T06:30:42.801Z,22.79
2022-08-02T06:34:44.789Z,22.89
2022-08-02T06:38:53.057Z,23.00
2022-08-02T06:43:17.704Z,23.07
2022-08-02T06:47:19.280Z,23.18
2022-08-02T06:51:21.177Z,23.25
2022-08-02T06:55:22.927Z,23.29
2022-08-02T06:59:24.486Z,23.26
2022-08-02T07:03:26.133Z,23.29
2022-08-02T07:07:28.186Z,23.38
2022-08-02T07:11:29.739Z,23.47
2022-08-02T07:15:31.407Z,23.62
2022-08-02T07:19:37.442Z,23.74
2022-08-02T07:23:39.824Z,23.82
2022-08-02T07:27:41.591Z,23.90
2022-08-02T07:31:43.209Z,23.99
2022-08-02T07:35:44.987Z,24.09
2022-08-02T07:39:49.913Z,24.15
2022-08-02T07:43:51.806Z,24.26
2022-08-02T07:47:53.392Z,24.36
2022-08-02T07:51:55.262Z,24.51
2022-08-02T07:55:56.878Z,24.61
2022-08-02T07:59:58.723Z,24.75
2022-08-02T08:04:00.298Z,24.83
2022-08-02T08:08:04.327Z,24.87
2022-08-02T08:12:06.742Z,24.97
2022-08-02T08:16:08.327Z,25.04
2022-08-02T08:20:15.389Z,25.12
2022-08-02T08:24:17.384Z,25.16
2022-08-02T08:28:18.970Z,25.27
2022-08-02T08:32:21.042Z,25.45
2022-08-02T08:36:23.565Z,25.54
2022-08-02T08:40:25.911Z,25.63
2022-08-02T08:44:28.324Z,25.76
2022-08-02T08:48:33.042Z,25.90
2022-08-02T08:52:42.179Z,26.01
2022-08-02T08:56:45.090Z,26.06
2022-08-02T09:00:47.118Z,26.19
2022-08-02T09:04:54.616Z,26.34
2022-08-02T09:08:56.745Z,26.39
2022-08-02T09:13:43.449Z,26.49
2022-08-02T09:17:53.224Z,26.60
2022-08-02T09:22:03.815Z,26.69
2022-08-02T09:26:10.168Z,26.87
2022-08-02T09:30:14.341Z,26.98
2022-08-02T09:34:19.907Z,27.05
2022-08-02T09:38:21.994Z,27.12
2022-08-02T09:42:23.650Z,27.18
2022-08-02T09:46:37.403Z,27.27
2022-08-02T09:50:41.294Z,27.38
2022-08-02T09:54:43.610Z,27.42
2022-08-02T09:58:45.882Z,27.50
2022-08-02T10:03:16.032Z,27.69
2022-08-02T10:07:24.117Z,27.80
2022-08-02T10:11:27.996Z,27.86
2022-08-02T10:15:29.652Z,27.99
2022-08-02T10:20:00.741Z,28.08
2022-08-02T10:23:54.201Z,28.23
2022-08-02T10:28:05.123Z,28.25
2022-08-02T10:32:11.227Z,28.32
2022-08-02T10:36:14.297Z,28.50
2022-08-02T10:40:26.691Z,28.65
2022-08-02T10:44:31.357Z,28.80
2022-08-02T10:49:18.469Z,28.88
2022-08-02T10:53:30.600Z,28.97
2022-08-02T10:57:33.841Z,29.00
2022-08-02T11:01:44.425Z,29.03
2022-08-02T11:06:04.581Z,29.15
2022-08-02T11:10:25.058Z,29.27
2022-08-02T11:14:26.709Z,29.42
2022-08-02T11:18:46.700Z,29.51
2022-08-02T11:22:51.191Z,29.70
2022-08-02T11:26:53.012Z,29.78
2022-08-02T11:31:02.659Z,29.94
2022-08-02T11:35:04.660Z,30.07
2022-08-02T11:39:10.822Z,30.15
2022-08-02T11:43:23.230Z,30.22
2022-08-02T11:47:24.982Z,30.42
2022-08-02T11:51:26.584Z,30.59
2022-08-02T11:55:29.603Z,30.76
2022-08-02T11:59:31.257Z,30.94
2022-08-02T12:03:39.459Z,31.03
2022-08-02T12:07:46.211Z,31.13
2022-08-02T12:11:51.335Z,30.97
2022-08-02T12:15:53.031Z,31.15
2022-08-02T12:19:54.763Z,31.18
2022-08-02T12:23:59.723Z,31.18
2022-08-02T12:28:20.351Z,31.19
2022-08-02T12:32:25.217Z,31.42
2022-08-02T12:36:30.619Z,31.52
2022-08-02T12:40:33.593Z,31.60
2022-08-02T12:44:38.532Z,31.74
2022-08-02T12:48:56.493Z,31.75
2022-08-02T12:53:15.794Z,31.82
2022-08-02T12:57:19.502Z,31.88
2022-08-02T13:01:26.776Z,31.99
2022-08-02T13:05:29.930Z,32.19
2022-08-02T13:09:51.496Z,32.41
2022-08-02T13:14:04.924Z,32.41
2022-08-02T13:18:06.902Z,32.50
2022-08-02T13:22:10.815Z,32.63
2022-08-02T13:26:12.510Z,32.61
2022-08-02T13:30:14.426Z,32.87
2022-08-02T13:34:16.652Z,32.83
2022-08-02T13:38:23.191Z,33.02
2022-08-02T13:42:26.467Z,33.03
2022-08-02T13:46:28.568Z,33.07
2022-08-02T13:50:31.388Z,33.22
2022-08-02T13:54:33.170Z,33.41
2022-08-02T13:58:34.862Z,33.63
2022-08-02T14:02:40.318Z,33.82
2022-08-02T14:06:42.301Z,33.94
2022-08-02T14:10:44.418Z,33.90
2022-08-02T14:14:46.036Z,34.00
2022-08-02T14:18:47.586Z,34.16
2022-08-02T14:22:49.716Z,34.31
2022-08-02T14:26:51.370Z,34.43
2022-08-02T14:30:52.924Z,34.26
2022-08-02T14:34:54.482Z,34.16
2022-08-02T14:38:56.768Z,33.99
2022-08-02T14:42:59.532Z,33.93
2022-08-02T14:47:01.181Z,33.96
2022-08-02T14:51:02.841Z,34.23
2022-08-02T14:55:05.566Z,34.24
2022-08-02T14:59:07.270Z,34.30
2022-08-02T15:03:10.020Z,34.27
2022-08-02T15:07:13.351Z,34.33
2022-08-02T15:11:15.025Z,34.43
2022-08-02T15:15:16.664Z,34.64
2022-08-02T15:19:18.221Z,34.86
2022-08-02T15:23:21.646Z,34.78
2022-08-02T15:27:23.334Z,34.72
2022-08-02T15:31:33.181Z,34.67
2022-08-02T15:35:35.170Z,34.64
2022-08-02T15:39:37.071Z,34.56
2022-08-02T15:44:00.083Z,34.50
2022-08-02T15:48:00.298Z,34.58
2022-08-02T15:52:01.902Z,34.72
2022-08-02T15:56:06.664Z,34.80
2022-08-02T16:00:18.018Z,34.73
2022-08-02T16:04:20.296Z,34.63
2022-08-02T16:08:21.873Z,34.40
2022-08-02T16:12:32.567Z,34.37
2022-08-02T16:16:36.256Z,34.21
2022-08-02T16:20:38.054Z,34.00
2022-08-02T16:24:39.894Z,33.77
2022-08-02T16:28:41.576Z,33.57
2022-08-02T16:32:43.242Z,33.43
2022-08-02T16:36:45.586Z,33.24
2022-08-02T16:40:47.204Z,33.14
2022-08-02T16:44:53.633Z,32.98
2022-08-02T16:48:56.379Z,32.85
2022-08-02T16:52:58.797Z,32.80
2022-08-02T16:57:00.853Z,32.72
2022-08-02T17:01:03.100Z,32.63
2022-08-02T17:05:13.911Z,32.56
2022-08-02T17:10:02.437Z,32.47
2022-08-02T17:13:38.113Z,32.31
2022-08-02T17:17:43.170Z,32.22
2022-08-02T17:21:44.838Z,32.07
2022-08-02T17:25:50.280Z,31.92
2022-08-02T17:29:55.280Z,31.78
2022-08-02T17:33:57.119Z,31.67
2022-08-02T17:38:00.320Z,31.59
2022-08-02T17:42:02.758Z,31.47
2022-08-02T17:46:06.537Z,31.40
2022-08-02T17:50:09.921Z,31.34
2022-08-02T17:54:18.711Z,31.27
2022-08-02T17:58:20.515Z,31.19
2022-08-02T18:02:22.205Z,31.12
2022-08-02T18:06:26.154Z,31.04
2022-08-02T18:10:28.465Z,30.96
2022-08-02T18:14:30.340Z,30.79
2022-08-02T18:18:31.991Z,30.68
2022-08-02T18:22:34.421Z,30.56
2022-08-02T18:26:37.545Z,30.45
2022-08-02T18:30:39.229Z,30.36
2022-08-02T18:34:40.807Z,30.26
2022-08-02T18:38:49.272Z,30.21
2022-08-02T18:42:50.837Z,30.11
2022-08-02T18:46:52.453Z,29.97
2022-08-02T18:50:54.226Z,29.88
2022-08-02T18:54:57.368Z,29.74
2022-08-02T18:58:58.987Z,29.60
2022-08-02T19:03:00.673Z,29.47
2022-08-02T19:07:07.673Z,29.33
2022-08-02T19:11:09.862Z,29.21
2022-08-02T19:15:13.499Z,29.11
2022-08-02T19:19:19.390Z,28.98
2022-08-02T19:23:21.210Z,28.85
2022-08-02T19:27:26.094Z,28.77
2022-08-02T19:31:34.655Z,28.70
2022-08-02T19:36:02.102Z,28.55
2022-08-02T19:40:07.906Z,28.45
2022-08-02T19:44:23.172Z,28.36
2022-08-02T19:48:30.319Z,28.33
2022-08-02T19:52:32.440Z,28.27
2022-08-02T19:56:36.295Z,28.24
2022-08-02T20:00:37.848Z,28.23
2022-08-02T20:04:42.064Z,28.20
2022-08-02T20:08:53.291Z,28.15
2022-08-02T20:13:13.154Z,28.03
2022-08-02T20:17:15.415Z,27.91
2022-08-02T20:21:36.423Z,27.83
2022-08-02T20:25:38.584Z,27.71
2022-08-02T20:29:49.926Z,27.68
2022-08-02T20:33:56.074Z,27.66
2022-08-02T20:38:02.129Z,27.62
2022-08-02T20:42:22.656Z,27.62
2022-08-02T20:46:25.671Z,27.53
2022-08-02T20:50:45.853Z,27.48
2022-08-02T20:54:51.645Z,27.42
2022-08-02T20:58:53.211Z,27.39
2022-08-02T21:02:54.773Z,27.27
2022-08-02T21:06:59.191Z,27.15
2022-08-02T21:11:01.283Z,27.08
2022-08-02T21:15:12.452Z,27.02
2022-08-02T21:19:14.200Z,26.97
2022-08-02T21:23:19.840Z,26.93
2022-08-02T21:27:52.112Z,26.94
2022-08-02T21:31:43.781Z,26.91
2022-08-02T21:35:45.433Z,26.84
2022-08-02T21:39:51.764Z,26.75
2022-08-02T21:43:58.111Z,26.69
2022-08-02T21:48:02.066Z,26.66
2022-08-02T21:52:04.483Z,26.66
2022-08-02T21:56:10.547Z,26.65
2022-08-02T22:00:12.762Z,26.56
2022-08-02T22:04:14.508Z,26.44
2022-08-02T22:08:18.001Z,26.09
2022-08-02T22:12:21.865Z,25.81
2022-08-02T22:16:27.626Z,25.78
2022-08-02T22:20:29.395Z,25.82
2022-08-02T22:24:31.056Z,25.79
2022-08-02T22:28:39.025Z,25.78
2022-08-02T22:33:15.003Z,25.72
2022-08-02T22:38:16.024Z,25.66
2022-08-02T22:42:00.904Z,25.66
2022-08-02T22:46:36.786Z,25.71
2022-08-02T22:50:38.595Z,25.72
2022-08-02T22:54:40.219Z,25.72
2022-08-02T23:03:06.677Z,25.66
2022-08-02T23:07:08.564Z,25.64
2022-08-02T23:11:10.323Z,25.60
2022-08-02T23:15:11.933Z,25.54
2022-08-02T23:19:31.888Z,25.46
2022-08-02T23:23:33.448Z,25.27
2022-08-02T23:27:35.505Z,25.17
2022-08-02T23:31:38.244Z,25.17
2022-08-02T23:35:40.146Z,25.14
2022-08-02T23:39:41.899Z,25.11
2022-08-02T23:44:03.777Z,25.07
2022-08-02T23:48:05.118Z,25.01
2022-08-02T23:52:06.747Z,24.98
2022-08-02T23:56:08.547Z,24.97
